createdAt,value
2019-03-23T00:00:01.103Z,19
2019-03-23T00:01:01.525Z,21
2019-03-23T00:03:01.129Z,22
2019-03-23T00:04:01.097Z,21
2019-03-23T00:06:01.141Z,20
2019-03-23T00:07:01.103Z,18
2019-03-23T00:08:01.130Z,17
2019-03-23T00:09:01.098Z,18
2019-03-23T00:10:01.111Z,19
2019-03-23T00:11:01.102Z,18
2019-03-23T00:12:01.105Z,19
2019-03-23T00:15:01.082Z,17
2019-03-23T00:16:01.082Z,16
2019-03-23T00:17:01.082Z,15
2019-03-23T00:18:01.083Z,14
2019-03-23T00:19:01.112Z,15
2019-03-23T00:20:01.085Z,16
2019-03-23T00:23:01.086Z,17
2019-03-23T00:24:01.115Z,16
2019-03-23T00:25:01.087Z,15
2019-03-23T00:26:01.084Z,14
2019-03-23T00:27:01.082Z,16
2019-03-23T00:28:01.087Z,15
2019-03-23T00:29:01.111Z,16
2019-03-23T00:30:01.086Z,18
2019-03-23T00:31:01.085Z,20
2019-03-23T00:32:01.087Z,18
2019-03-23T00:33:01.085Z,19
2019-03-23T00:36:01.089Z,18
2019-03-23T00:38:01.087Z,19
2019-03-23T00:39:01.111Z,18
2019-03-23T00:40:01.087Z,17
2019-03-23T00:41:01.090Z,16
2019-03-23T00:43:01.087Z,17
2019-03-23T00:45:01.113Z,17
2019-03-23T00:46:01.089Z,18
2019-03-23T00:47:01.087Z,17
2019-03-23T00:49:01.111Z,16
2019-03-23T00:52:01.090Z,17
2019-03-23T00:53:01.096Z,18
2019-03-23T00:54:01.123Z,19
2019-03-23T00:55:01.088Z,18
2019-03-23T00:56:01.088Z,19
2019-03-23T00:57:01.091Z,17
2019-03-23T00:58:01.089Z,16
2019-03-23T00:59:01.113Z,15
2019-03-23T01:00:01.089Z,15
2019-03-23T01:01:01.088Z,14
2019-03-23T01:02:01.091Z,15
2019-03-23T01:04:01.127Z,14
2019-03-23T01:05:01.587Z,15
2019-03-23T01:08:01.089Z,16
2019-03-23T01:09:01.093Z,17
2019-03-23T01:12:01.089Z,15
2019-03-23T01:15:01.165Z,15
2019-03-23T01:16:01.090Z,17
2019-03-23T01:17:01.090Z,18
2019-03-23T01:19:01.105Z,17
2019-03-23T01:21:01.130Z,15
2019-03-23T01:24:01.088Z,16
2019-03-23T01:25:01.092Z,18
2019-03-23T01:26:01.116Z,20
2019-03-23T01:29:01.090Z,18
2019-03-23T01:30:01.094Z,15
2019-03-23T01:33:01.197Z,14
2019-03-23T01:34:01.091Z,15
2019-03-23T01:35:01.096Z,14
2019-03-23T01:36:01.099Z,15
2019-03-23T01:37:02.832Z,14
2019-03-23T01:38:01.123Z,16
2019-03-23T01:40:01.095Z,17
2019-03-23T01:41:01.093Z,16
2019-03-23T01:43:01.130Z,15
2019-03-23T01:45:01.096Z,15
2019-03-23T01:47:01.093Z,16
2019-03-23T01:48:01.127Z,18
2019-03-23T01:49:01.095Z,19
2019-03-23T01:52:01.095Z,18
2019-03-23T01:53:01.142Z,15
2019-03-23T01:54:01.095Z,14
2019-03-23T01:55:01.095Z,15
2019-03-23T01:57:01.112Z,14
2019-03-23T01:58:01.126Z,15
2019-03-23T01:59:01.102Z,16
2019-03-23T02:00:01.096Z,17
2019-03-23T02:03:01.128Z,16
2019-03-23T02:04:01.099Z,15
2019-03-23T02:07:01.120Z,16
2019-03-23T02:08:01.095Z,17
2019-03-23T02:09:01.095Z,18
2019-03-23T02:10:01.126Z,17
2019-03-23T02:11:01.095Z,18
2019-03-23T02:12:01.099Z,16
2019-03-23T02:15:01.126Z,19
2019-03-23T02:17:01.096Z,22
2019-03-23T02:18:01.095Z,20
2019-03-23T02:20:01.124Z,17
2019-03-23T02:21:01.093Z,18
2019-03-23T02:22:01.094Z,17
2019-03-23T02:23:01.094Z,18
2019-03-23T02:26:01.139Z,17
2019-03-23T02:29:01.093Z,18
2019-03-23T02:30:01.097Z,18
2019-03-23T02:31:01.127Z,19
2019-03-23T02:32:01.096Z,20
2019-03-23T02:33:01.096Z,19
2019-03-23T02:34:02.128Z,20
2019-03-23T02:35:01.097Z,19
2019-03-23T02:36:01.139Z,20
2019-03-23T02:37:01.100Z,18
2019-03-23T02:38:01.097Z,17
2019-03-23T02:39:01.099Z,16
2019-03-23T02:40:01.275Z,14
2019-03-23T02:42:01.089Z,13
2019-03-23T02:43:01.083Z,14
2019-03-23T02:44:01.096Z,15
2019-03-23T02:45:01.089Z,15
2019-03-23T02:46:01.089Z,16
2019-03-23T02:48:01.086Z,15
2019-03-23T02:50:01.086Z,16
2019-03-23T02:51:01.089Z,17
2019-03-23T02:52:01.107Z,16
2019-03-23T02:53:01.084Z,17
2019-03-23T02:54:01.086Z,16
2019-03-23T02:55:01.083Z,15
2019-03-23T02:56:01.085Z,16
2019-03-23T02:58:01.118Z,17
2019-03-23T02:59:01.086Z,18
2019-03-23T03:00:01.103Z,18
2019-03-23T03:01:01.083Z,16
2019-03-23T03:03:01.084Z,15
2019-03-23T03:04:01.086Z,14
2019-03-23T03:05:01.090Z,15
2019-03-23T03:06:01.084Z,16
2019-03-23T03:07:01.100Z,17
2019-03-23T03:09:01.089Z,18
2019-03-23T03:10:02.124Z,16
2019-03-23T03:11:01.087Z,17
2019-03-23T03:12:01.087Z,14
2019-03-23T03:13:01.137Z,15
2019-03-23T03:15:01.087Z,16
2019-03-23T03:17:01.088Z,17
2019-03-23T03:21:01.114Z,16
2019-03-23T03:22:01.089Z,17
2019-03-23T03:23:01.092Z,15
2019-03-23T03:25:01.132Z,16
2019-03-23T03:26:01.087Z,17
2019-03-23T03:27:01.090Z,15
2019-03-23T03:28:01.091Z,17
2019-03-23T03:29:01.087Z,18
2019-03-23T03:30:01.158Z,18
2019-03-23T03:31:01.087Z,17
2019-03-23T03:32:01.925Z,19
2019-03-23T03:34:01.176Z,18
2019-03-23T03:35:01.109Z,17
2019-03-23T03:36:01.118Z,16
2019-03-23T03:37:01.089Z,15
2019-03-23T03:40:01.102Z,18
2019-03-23T03:41:01.094Z,19
2019-03-23T03:44:01.125Z,18
2019-03-23T03:45:01.087Z,15
2019-03-23T03:46:01.087Z,16
2019-03-23T03:47:01.112Z,15
2019-03-23T03:48:01.086Z,14
2019-03-23T03:49:11.675Z,15
2019-03-23T03:50:01.089Z,16
2019-03-23T03:51:01.094Z,15
2019-03-23T03:52:01.116Z,16
2019-03-23T03:53:01.087Z,17
2019-03-23T03:54:01.090Z,18
2019-03-23T03:56:01.111Z,17
2019-03-23T03:58:01.089Z,16
2019-03-23T04:00:01.123Z,15
2019-03-23T04:01:01.088Z,16
2019-03-23T04:02:01.090Z,15
2019-03-23T04:04:01.087Z,13
2019-03-23T04:05:01.089Z,14
2019-03-23T04:06:01.113Z,13
2019-03-23T04:07:01.090Z,14
2019-03-23T04:08:10.771Z,16
2019-03-23T04:11:01.116Z,18
2019-03-23T04:12:01.092Z,17
2019-03-23T04:13:01.090Z,18
2019-03-23T04:14:01.133Z,20
2019-03-23T04:15:01.094Z,20
2019-03-23T04:16:01.140Z,17
2019-03-23T04:18:01.094Z,16
2019-03-23T04:20:01.098Z,15
2019-03-23T04:21:01.130Z,19
2019-03-23T04:22:01.094Z,18
2019-03-23T04:25:01.100Z,17
2019-03-23T04:26:06.111Z,16
2019-03-23T04:27:01.095Z,15
2019-03-23T04:29:01.098Z,16
2019-03-23T04:30:01.097Z,16
2019-03-23T04:31:06.107Z,18
2019-03-23T04:32:01.095Z,19
2019-03-23T04:33:01.104Z,20
2019-03-23T04:34:01.097Z,19
2019-03-23T04:35:01.097Z,18
2019-03-23T04:36:01.133Z,17
2019-03-23T04:37:03.103Z,16
2019-03-23T04:38:01.099Z,14
2019-03-23T04:40:01.105Z,15
2019-03-23T04:41:06.109Z,16
2019-03-23T04:42:01.104Z,18
2019-03-23T04:43:01.096Z,19
2019-03-23T04:44:01.095Z,20
2019-03-23T04:45:02.022Z,17
2019-03-23T04:47:06.104Z,16
2019-03-23T04:48:01.096Z,15
2019-03-23T04:51:01.087Z,17
2019-03-23T04:52:01.106Z,16
2019-03-23T04:54:01.082Z,17
2019-03-23T04:55:01.084Z,18
2019-03-23T04:56:01.084Z,17
2019-03-23T04:58:01.081Z,16
2019-03-23T04:59:01.082Z,17
2019-03-23T05:00:01.099Z,16
2019-03-23T05:01:01.088Z,17
2019-03-23T05:02:01.108Z,18
2019-03-23T05:03:01.083Z,17
2019-03-23T05:04:01.085Z,16
2019-03-23T05:05:01.085Z,15
2019-03-23T05:06:01.084Z,14
2019-03-23T05:07:01.117Z,15
2019-03-23T05:08:01.087Z,16
2019-03-23T05:09:01.084Z,17
2019-03-23T05:11:01.085Z,16
2019-03-23T05:12:02.121Z,15
2019-03-23T05:13:01.087Z,14
2019-03-23T05:15:01.163Z,16
2019-03-23T05:17:01.086Z,18
2019-03-23T05:18:01.746Z,19
2019-03-23T05:19:01.085Z,18
2019-03-23T05:20:01.086Z,16
2019-03-23T05:21:01.085Z,17
2019-03-23T05:22:01.085Z,15
2019-03-23T05:25:01.086Z,17
2019-03-23T05:26:01.087Z,18
2019-03-23T05:28:01.088Z,17
2019-03-23T05:29:01.092Z,20
2019-03-23T05:30:06.110Z,20
2019-03-23T05:31:01.089Z,18
2019-03-23T05:32:01.090Z,19
2019-03-23T05:34:01.090Z,17
2019-03-23T05:35:01.104Z,16
2019-03-23T05:36:01.090Z,15
2019-03-23T05:37:01.090Z,16
2019-03-23T05:38:01.096Z,17
2019-03-23T05:41:01.091Z,18
2019-03-23T05:42:01.090Z,16
2019-03-23T05:43:01.092Z,14
2019-03-23T05:44:01.094Z,13
2019-03-23T05:45:01.092Z,14
2019-03-23T05:48:01.092Z,16
2019-03-23T05:49:01.092Z,15
2019-03-23T05:50:01.097Z,13
2019-03-23T05:51:01.095Z,14
2019-03-23T05:52:01.568Z,15
2019-03-23T05:54:01.092Z,16
2019-03-23T05:56:01.092Z,15
2019-03-23T05:57:01.092Z,14
2019-03-23T05:58:01.123Z,13
2019-03-23T05:59:01.091Z,14
2019-03-23T06:00:06.095Z,15
2019-03-23T06:01:01.091Z,17
2019-03-23T06:02:01.096Z,18
2019-03-23T06:03:01.138Z,17
2019-03-23T06:04:01.095Z,16
2019-03-23T06:05:01.092Z,14
2019-03-23T06:07:01.092Z,13
2019-03-23T06:08:01.126Z,15
2019-03-23T06:09:06.102Z,16
2019-03-23T06:10:01.092Z,19
2019-03-23T06:12:01.090Z,18
2019-03-23T06:15:01.488Z,16
2019-03-23T06:17:01.094Z,17
2019-03-23T06:18:01.135Z,18
2019-03-23T06:20:01.106Z,19
2019-03-23T06:23:01.129Z,18
2019-03-23T06:24:01.097Z,19
2019-03-23T06:25:01.094Z,18
2019-03-23T06:26:01.095Z,17
2019-03-23T06:27:01.094Z,16
2019-03-23T06:28:01.127Z,17
2019-03-23T06:29:01.092Z,16
2019-03-23T06:30:01.100Z,15
2019-03-23T06:31:01.094Z,14
2019-03-23T06:33:01.127Z,15
2019-03-23T06:34:01.095Z,16
2019-03-23T06:35:01.095Z,17
2019-03-23T06:36:01.095Z,19
2019-03-23T06:37:01.093Z,21
2019-03-23T06:38:01.129Z,20
2019-03-23T06:39:05.297Z,19
2019-03-23T06:41:01.112Z,18
2019-03-23T06:42:01.101Z,16
2019-03-23T06:43:06.098Z,15
2019-03-23T06:44:01.094Z,17
2019-03-23T06:45:01.096Z,17
2019-03-23T06:46:01.094Z,16
2019-03-23T06:47:01.092Z,17
2019-03-23T06:49:01.093Z,16
2019-03-23T06:51:03.189Z,18
2019-03-23T06:52:01.895Z,19
2019-03-23T06:53:06.105Z,18
2019-03-23T06:54:01.095Z,19
2019-03-23T06:55:01.093Z,18
2019-03-23T06:56:01.093Z,16
2019-03-23T06:57:01.094Z,15
2019-03-23T06:59:01.092Z,14
2019-03-23T07:00:01.094Z,13
2019-03-23T07:01:01.094Z,14
2019-03-23T07:03:01.128Z,17
2019-03-23T07:04:01.094Z,15
2019-03-23T07:05:01.095Z,16
2019-03-23T07:06:01.097Z,17
2019-03-23T07:08:01.127Z,16
2019-03-23T07:09:01.096Z,17
2019-03-23T07:10:01.118Z,16
2019-03-23T07:11:01.106Z,15
2019-03-23T07:12:01.098Z,16
2019-03-23T07:13:01.129Z,14
2019-03-23T07:15:01.108Z,15
2019-03-23T07:16:01.098Z,16
2019-03-23T07:18:01.081Z,14
2019-03-23T07:19:01.082Z,16
2019-03-23T07:21:01.084Z,14
2019-03-23T07:23:01.084Z,16
2019-03-23T07:24:01.082Z,15
2019-03-23T07:25:01.084Z,18
2019-03-23T07:26:01.086Z,19
2019-03-23T07:27:01.087Z,18
2019-03-23T07:28:01.085Z,16
2019-03-23T07:29:01.084Z,17
2019-03-23T07:30:01.085Z,17
2019-03-23T07:31:01.083Z,16
2019-03-23T07:32:05.583Z,18
2019-03-23T07:33:01.085Z,20
2019-03-23T07:34:01.083Z,22
2019-03-23T07:35:01.083Z,20
2019-03-23T07:36:01.084Z,21
2019-03-23T07:37:01.084Z,18
2019-03-23T07:38:01.093Z,19
2019-03-23T07:39:01.085Z,17
2019-03-23T07:40:01.679Z,18
2019-03-23T07:41:01.098Z,16
2019-03-23T07:42:01.127Z,18
2019-03-23T07:43:01.088Z,16
2019-03-23T07:44:01.087Z,15
2019-03-23T07:45:01.086Z,15
2019-03-23T07:47:01.088Z,14
2019-03-23T07:48:01.087Z,13
2019-03-23T07:49:01.086Z,14
2019-03-23T07:50:01.087Z,15
2019-03-23T07:51:01.093Z,13
2019-03-23T07:52:01.091Z,14
2019-03-23T07:54:02.697Z,15
2019-03-23T07:55:01.091Z,14
2019-03-23T07:56:01.090Z,15
2019-03-23T07:58:01.087Z,14
2019-03-23T08:00:01.105Z,13
2019-03-23T08:02:01.088Z,14
2019-03-23T08:03:01.087Z,15
2019-03-23T08:04:01.087Z,14
2019-03-23T08:06:01.088Z,16
2019-03-23T08:07:01.088Z,14
2019-03-23T08:09:01.089Z,16
2019-03-23T08:10:01.099Z,17
2019-03-23T08:11:01.327Z,16
2019-03-23T08:12:01.087Z,17
2019-03-23T08:13:01.093Z,18
2019-03-23T08:14:01.088Z,17
2019-03-23T08:15:01.090Z,17
2019-03-23T08:16:01.091Z,18
2019-03-23T08:17:01.090Z,17
2019-03-23T08:18:01.091Z,16
2019-03-23T08:20:01.090Z,15
2019-03-23T08:21:01.087Z,13
2019-03-23T08:22:01.089Z,14
2019-03-23T08:23:01.095Z,15
2019-03-23T08:24:01.091Z,14
2019-03-23T08:26:01.091Z,15
2019-03-23T08:27:01.092Z,16
2019-03-23T08:28:01.094Z,18
2019-03-23T08:29:03.208Z,19
2019-03-23T08:30:01.092Z,18
2019-03-23T08:31:01.091Z,16
2019-03-23T08:32:01.092Z,15
2019-03-23T08:33:01.129Z,14
2019-03-23T08:34:01.096Z,15
2019-03-23T08:35:01.093Z,17
2019-03-23T08:36:01.093Z,16
2019-03-23T08:37:02.125Z,15
2019-03-23T08:38:01.132Z,13
2019-03-23T08:39:01.096Z,14
2019-03-23T08:40:01.097Z,12
2019-03-23T08:41:01.094Z,15
2019-03-23T08:42:01.096Z,14
2019-03-23T08:43:01.126Z,15
2019-03-23T08:44:01.093Z,14
2019-03-23T08:45:01.093Z,16
2019-03-23T08:46:01.094Z,17
2019-03-23T08:47:01.093Z,18
2019-03-23T08:48:01.120Z,17
2019-03-23T08:49:01.094Z,19
2019-03-23T08:53:01.126Z,20
2019-03-23T08:54:01.095Z,18
2019-03-23T08:55:01.094Z,17
2019-03-23T08:56:01.094Z,16
2019-03-23T08:57:01.096Z,18
2019-03-23T08:58:01.131Z,17
2019-03-23T09:00:01.093Z,17
2019-03-23T09:02:01.094Z,16
2019-03-23T09:03:03.596Z,15
2019-03-23T09:05:01.093Z,16
2019-03-23T09:06:01.095Z,17
2019-03-23T09:08:01.128Z,18
2019-03-23T09:10:01.093Z,17
2019-03-23T09:11:01.095Z,15
2019-03-23T09:12:01.095Z,14
2019-03-23T09:13:01.127Z,13
2019-03-23T09:14:01.098Z,14
2019-03-23T09:15:01.097Z,15
2019-03-23T09:17:01.100Z,16
2019-03-23T09:18:01.128Z,17
2019-03-23T09:19:01.096Z,15
2019-03-23T09:21:01.101Z,17
2019-03-23T09:22:01.100Z,18
2019-03-23T09:26:01.132Z,17
2019-03-23T09:27:01.096Z,15
2019-03-23T09:28:01.098Z,16
2019-03-23T09:29:01.097Z,18
2019-03-23T09:30:02.008Z,18
2019-03-23T09:31:01.103Z,21
2019-03-23T09:33:01.102Z,19
2019-03-23T09:34:01.104Z,18
2019-03-23T09:35:01.099Z,17
2019-03-23T09:36:01.103Z,14
2019-03-23T09:37:01.099Z,15
2019-03-23T09:41:01.085Z,16
2019-03-23T09:42:01.085Z,17
2019-03-23T09:43:01.084Z,15
2019-03-23T09:44:01.084Z,16
2019-03-23T09:45:01.084Z,15
2019-03-23T09:46:01.109Z,16
2019-03-23T09:47:01.085Z,18
2019-03-23T09:48:01.092Z,19
2019-03-23T09:50:01.085Z,20
2019-03-23T09:51:01.112Z,18
2019-03-23T09:52:01.086Z,17
2019-03-23T09:53:01.087Z,16
2019-03-23T09:55:01.097Z,15
2019-03-23T09:56:01.110Z,17
2019-03-23T09:57:01.103Z,15
2019-03-23T10:00:01.087Z,15
2019-03-23T10:01:01.119Z,16
2019-03-23T10:03:01.090Z,17
2019-03-23T10:05:01.092Z,16
2019-03-23T10:06:01.088Z,14
2019-03-23T10:07:01.112Z,13
2019-03-23T10:09:01.090Z,14
2019-03-23T10:10:01.088Z,15
2019-03-23T10:11:01.093Z,17
2019-03-23T10:12:01.116Z,18
2019-03-23T10:13:01.089Z,19
2019-03-23T10:15:01.905Z,18
2019-03-23T10:16:01.090Z,16
2019-03-23T10:18:01.695Z,15
2019-03-23T10:19:01.092Z,14
2019-03-23T10:20:01.091Z,15
2019-03-23T10:21:01.092Z,16
2019-03-23T10:25:01.093Z,17
2019-03-23T10:30:01.091Z,18
2019-03-23T10:31:01.090Z,19
2019-03-23T10:34:01.094Z,20
2019-03-23T10:35:01.093Z,18
2019-03-23T10:36:01.090Z,16
2019-03-23T10:37:01.094Z,15
2019-03-23T10:38:01.115Z,14
2019-03-23T10:39:01.091Z,15
2019-03-23T10:40:01.094Z,17
2019-03-23T10:41:01.092Z,19
2019-03-23T10:42:01.092Z,21
2019-03-23T10:43:01.122Z,20
2019-03-23T10:44:01.096Z,17
2019-03-23T10:45:01.103Z,16
2019-03-23T10:46:01.099Z,14
2019-03-23T10:47:01.094Z,15
2019-03-23T10:48:01.127Z,16
2019-03-23T10:51:01.093Z,18
2019-03-23T10:52:01.094Z,17
2019-03-23T10:55:01.103Z,16
2019-03-23T10:56:01.094Z,17
2019-03-23T11:00:01.101Z,17
2019-03-23T11:01:01.094Z,16
2019-03-23T11:03:01.095Z,17
2019-03-23T11:04:01.128Z,18
2019-03-23T11:05:01.095Z,17
2019-03-23T11:06:01.095Z,18
2019-03-23T11:07:01.095Z,16
2019-03-23T11:08:01.095Z,15
2019-03-23T11:09:01.127Z,12
2019-03-23T11:10:01.095Z,15
2019-03-23T11:12:01.095Z,17
2019-03-23T11:13:01.097Z,20
2019-03-23T11:14:01.131Z,21
2019-03-23T11:15:01.095Z,19
2019-03-23T11:16:01.096Z,18
2019-03-23T11:17:01.097Z,15
2019-03-23T11:18:01.097Z,13
2019-03-23T11:19:01.135Z,12
2019-03-23T11:20:01.103Z,14
2019-03-23T11:22:01.975Z,16
2019-03-23T11:24:01.129Z,17
2019-03-23T11:25:01.096Z,16
2019-03-23T11:26:01.095Z,15
2019-03-23T11:28:01.097Z,14
2019-03-23T11:29:01.128Z,15
2019-03-23T11:30:01.097Z,15
2019-03-23T11:31:01.095Z,16
2019-03-23T11:32:01.100Z,15
2019-03-23T11:33:01.100Z,16
2019-03-23T11:34:01.129Z,17
2019-03-23T11:35:01.129Z,16
2019-03-23T11:36:01.097Z,14
2019-03-23T11:37:01.097Z,15
2019-03-23T11:38:02.401Z,14
2019-03-23T11:42:01.081Z,16
2019-03-23T11:43:01.084Z,19
2019-03-23T11:44:01.080Z,20
2019-03-23T11:45:01.116Z,22
2019-03-23T11:46:01.094Z,23
2019-03-23T11:47:01.082Z,21
2019-03-23T11:48:01.081Z,19
2019-03-23T11:49:01.081Z,18
2019-03-23T11:50:01.082Z,16
2019-03-23T11:51:01.113Z,15
2019-03-23T11:54:01.113Z,16
2019-03-23T11:55:01.085Z,15
2019-03-23T11:56:01.083Z,16
2019-03-23T11:57:01.084Z,14
2019-03-23T11:59:01.111Z,13
2019-03-23T12:00:01.095Z,14
2019-03-23T12:02:01.086Z,17
2019-03-23T12:03:01.126Z,18
2019-03-23T12:04:01.082Z,19
2019-03-23T12:05:01.083Z,20
2019-03-23T12:06:01.083Z,18
2019-03-23T12:07:01.082Z,16
2019-03-23T12:08:01.116Z,15
2019-03-23T12:09:01.085Z,16
2019-03-23T12:10:01.082Z,15
2019-03-23T12:11:03.005Z,16
2019-03-23T12:12:01.085Z,17
2019-03-23T12:13:01.121Z,16
2019-03-23T12:15:01.085Z,16
2019-03-23T12:17:01.084Z,15
2019-03-23T12:20:01.946Z,13
2019-03-23T12:21:01.084Z,12
2019-03-23T12:22:01.085Z,14
2019-03-23T12:25:01.149Z,15
2019-03-23T12:26:01.085Z,16
2019-03-23T12:27:01.084Z,15
2019-03-23T12:28:01.111Z,14
2019-03-23T12:30:06.850Z,15
2019-03-23T12:34:01.123Z,16
2019-03-23T12:35:01.084Z,15
2019-03-23T12:37:01.091Z,14
2019-03-23T12:38:01.110Z,13
2019-03-23T12:39:01.085Z,12
2019-03-23T12:40:01.085Z,14
2019-03-23T12:43:01.117Z,15
2019-03-23T12:44:01.086Z,16
2019-03-23T12:45:01.087Z,13
2019-03-23T12:47:01.086Z,15
2019-03-23T12:50:01.086Z,16
2019-03-23T12:51:02.011Z,15
2019-03-23T12:52:01.095Z,17
2019-03-23T12:53:01.116Z,19
2019-03-23T12:54:01.084Z,18
2019-03-23T12:57:01.085Z,16
2019-03-23T12:58:01.110Z,17
2019-03-23T12:59:01.087Z,18
2019-03-23T13:00:01.104Z,18
2019-03-23T13:01:01.086Z,20
2019-03-23T13:02:01.088Z,19
2019-03-23T13:03:01.110Z,17
2019-03-23T13:04:01.085Z,16
2019-03-23T13:05:01.087Z,15
2019-03-23T13:06:01.084Z,16
2019-03-23T13:09:01.108Z,15
2019-03-23T13:10:01.083Z,16
2019-03-23T13:12:01.086Z,18
2019-03-23T13:14:01.109Z,19
2019-03-23T13:15:01.084Z,18
2019-03-23T13:17:01.084Z,15
2019-03-23T13:19:01.110Z,17
2019-03-23T13:21:02.887Z,16
2019-03-23T13:22:01.086Z,17
2019-03-23T13:23:01.112Z,18
2019-03-23T13:24:01.084Z,17
2019-03-23T13:26:01.095Z,18
2019-03-23T13:28:01.112Z,17
2019-03-23T13:29:01.094Z,16
2019-03-23T13:30:01.087Z,17
2019-03-23T13:33:01.114Z,18
2019-03-23T13:34:01.087Z,20
2019-03-23T13:38:01.120Z,19
2019-03-23T13:41:01.086Z,18
2019-03-23T13:42:01.087Z,17
2019-03-23T13:43:01.089Z,18
2019-03-23T13:45:01.112Z,18
2019-03-23T13:47:01.089Z,19
2019-03-23T13:48:01.110Z,18
2019-03-23T13:50:01.089Z,16
2019-03-23T13:51:01.086Z,14
2019-03-23T13:52:01.895Z,16
2019-03-23T13:53:01.240Z,15
2019-03-23T13:54:01.086Z,13
2019-03-23T13:55:02.115Z,14
2019-03-23T13:56:01.091Z,15
2019-03-23T13:57:01.091Z,16
2019-03-23T13:58:01.089Z,18
2019-03-23T13:59:01.114Z,19
2019-03-23T14:00:01.098Z,19
2019-03-23T14:02:01.093Z,18
2019-03-23T14:06:01.118Z,17
2019-03-23T14:09:01.122Z,19
2019-03-23T14:10:01.088Z,17
2019-03-23T14:11:01.091Z,18
2019-03-23T14:14:01.089Z,16
2019-03-23T14:15:01.090Z,16
2019-03-23T14:16:01.091Z,15
2019-03-23T14:17:01.091Z,16
2019-03-23T14:18:01.093Z,14
2019-03-23T14:20:01.090Z,13
2019-03-23T14:23:02.789Z,16
2019-03-23T14:24:01.090Z,17
2019-03-23T14:25:01.090Z,19
2019-03-23T14:28:01.091Z,17
2019-03-23T14:30:01.095Z,17
2019-03-23T14:31:01.095Z,19
2019-03-23T14:32:01.091Z,18
2019-03-23T14:33:01.091Z,17
2019-03-23T14:34:01.090Z,16
2019-03-23T14:35:01.334Z,14
2019-03-23T14:37:01.092Z,15
2019-03-23T14:38:01.092Z,17
2019-03-23T14:40:01.095Z,18
2019-03-23T14:41:01.092Z,17
2019-03-23T14:45:01.116Z,17
2019-03-23T14:47:01.091Z,15
2019-03-23T14:48:01.092Z,14
2019-03-23T14:49:01.518Z,15
2019-03-23T14:50:01.118Z,14
2019-03-23T14:51:01.093Z,13
2019-03-23T14:52:01.090Z,14
2019-03-23T14:53:01.092Z,15
2019-03-23T14:54:01.132Z,13
2019-03-23T14:56:01.090Z,14
2019-03-23T14:57:01.093Z,15
2019-03-23T14:58:01.094Z,14
2019-03-23T14:59:01.266Z,16
2019-03-23T15:00:01.095Z,16
2019-03-23T15:01:01.093Z,15
2019-03-23T15:03:01.091Z,17
2019-03-23T15:04:01.119Z,16
2019-03-23T15:05:01.091Z,15
2019-03-23T15:06:01.091Z,16
2019-03-23T15:11:01.119Z,17
2019-03-23T15:13:01.097Z,15
2019-03-23T15:15:01.123Z,14
2019-03-23T15:17:01.093Z,13
2019-03-23T15:18:01.094Z,14
2019-03-23T15:20:01.121Z,15
2019-03-23T15:21:01.096Z,16
2019-03-23T15:23:01.097Z,18
2019-03-23T15:26:01.094Z,17
2019-03-23T15:28:01.094Z,15
2019-03-23T15:30:01.120Z,14
2019-03-23T15:31:01.096Z,13
2019-03-23T15:32:01.096Z,14
2019-03-23T15:33:01.095Z,15
2019-03-23T15:34:01.120Z,16
2019-03-23T15:36:01.097Z,18
2019-03-23T15:38:01.094Z,17
2019-03-23T15:40:01.126Z,18
2019-03-23T15:41:01.095Z,17
2019-03-23T15:42:01.095Z,15
2019-03-23T15:43:01.097Z,16
2019-03-23T15:44:01.126Z,15
2019-03-23T15:45:01.108Z,16
2019-03-23T15:47:01.099Z,17
2019-03-23T15:49:01.119Z,18
2019-03-23T15:50:01.098Z,16
2019-03-23T15:51:01.096Z,17
2019-03-23T15:52:01.096Z,16
2019-03-23T15:53:01.097Z,14
2019-03-23T15:54:01.123Z,15
2019-03-23T15:57:01.101Z,16
2019-03-23T15:59:06.103Z,15
2019-03-23T16:00:01.177Z,14
2019-03-23T16:02:01.085Z,15
2019-03-23T16:04:01.108Z,16
2019-03-23T16:05:01.083Z,18
2019-03-23T16:07:01.089Z,21
2019-03-23T16:08:01.085Z,20
2019-03-23T16:09:01.083Z,21
2019-03-23T16:10:01.084Z,19
2019-03-23T16:12:01.085Z,17
2019-03-23T16:13:01.085Z,18
2019-03-23T16:15:01.084Z,18
2019-03-23T16:16:01.087Z,19
2019-03-23T16:17:01.088Z,20
2019-03-23T16:18:01.687Z,18
2019-03-23T16:19:01.085Z,17
2019-03-23T16:20:01.086Z,16
2019-03-23T16:21:01.085Z,14
2019-03-23T16:22:01.089Z,15
2019-03-23T16:24:01.085Z,17
2019-03-23T16:25:01.090Z,19
2019-03-23T16:27:01.507Z,18
2019-03-23T16:28:01.093Z,17
2019-03-23T16:29:01.086Z,15
2019-03-23T16:30:01.086Z,12
2019-03-23T16:32:01.087Z,14
2019-03-23T16:33:01.095Z,16
2019-03-23T16:34:01.096Z,17
2019-03-23T16:35:01.085Z,19
2019-03-23T16:36:01.086Z,21
2019-03-23T16:37:01.089Z,20
2019-03-23T16:39:01.174Z,19
2019-03-23T16:41:01.089Z,18
2019-03-23T16:42:01.087Z,17
2019-03-23T16:43:01.086Z,16
2019-03-23T16:44:01.125Z,15
2019-03-23T16:45:01.086Z,14
2019-03-23T16:47:01.086Z,15
2019-03-23T16:48:01.087Z,16
2019-03-23T16:49:01.089Z,19
2019-03-23T16:51:01.085Z,20
2019-03-23T16:52:01.086Z,19
2019-03-23T16:53:01.085Z,18
2019-03-23T16:54:01.087Z,16
2019-03-23T16:55:01.086Z,15
2019-03-23T16:58:01.095Z,16
2019-03-23T16:59:01.167Z,18
2019-03-23T17:00:01.104Z,18
2019-03-23T17:01:01.086Z,17
2019-03-23T17:03:01.094Z,16
2019-03-23T17:04:01.116Z,17
2019-03-23T17:05:01.096Z,18
2019-03-23T17:07:01.088Z,19
2019-03-23T17:08:01.089Z,20
2019-03-23T17:09:06.099Z,18
2019-03-23T17:10:01.176Z,16
2019-03-23T17:15:01.097Z,17
2019-03-23T17:16:01.090Z,19
2019-03-23T17:17:01.089Z,17
2019-03-23T17:18:01.094Z,16
2019-03-23T17:19:06.093Z,15
2019-03-23T17:20:01.092Z,14
2019-03-23T17:21:01.092Z,15
2019-03-23T17:22:01.097Z,16
2019-03-23T17:23:01.100Z,17
2019-03-23T17:24:06.105Z,18
2019-03-23T17:25:01.097Z,20
2019-03-23T17:26:01.095Z,16
2019-03-23T17:28:01.100Z,15
2019-03-23T17:30:01.098Z,15
2019-03-23T17:31:01.094Z,17
2019-03-23T17:32:01.094Z,16
2019-03-23T17:33:01.104Z,17
2019-03-23T17:34:06.103Z,15
2019-03-23T17:37:01.100Z,14
2019-03-23T17:39:06.097Z,15
2019-03-23T17:40:01.125Z,17
2019-03-23T17:41:01.095Z,18
2019-03-23T17:43:05.737Z,19
2019-03-23T17:44:06.097Z,22
2019-03-23T17:45:01.096Z,20
2019-03-23T17:46:01.096Z,18
2019-03-23T17:47:01.102Z,19
2019-03-23T17:49:01.121Z,16
2019-03-23T17:50:01.096Z,18
2019-03-23T17:54:01.112Z,16
2019-03-23T17:55:01.083Z,19
2019-03-23T17:56:01.080Z,18
2019-03-23T17:58:01.085Z,17
2019-03-23T17:59:01.085Z,18
2019-03-23T18:00:01.107Z,17
2019-03-23T18:01:01.081Z,15
2019-03-23T18:02:01.081Z,16
2019-03-23T18:03:01.088Z,15
2019-03-23T18:04:01.083Z,16
2019-03-23T18:05:01.114Z,15
2019-03-23T18:06:01.084Z,14
2019-03-23T18:07:01.083Z,15
2019-03-23T18:08:01.083Z,18
2019-03-23T18:10:01.083Z,19
2019-03-23T18:13:01.086Z,17
2019-03-23T18:14:01.083Z,16
2019-03-23T18:15:01.084Z,15
2019-03-23T18:18:01.082Z,17
2019-03-23T18:19:01.082Z,19
2019-03-23T18:21:01.084Z,21
2019-03-23T18:22:01.092Z,20
2019-03-23T18:23:01.084Z,18
2019-03-23T18:24:01.086Z,17
2019-03-23T18:25:01.088Z,16
2019-03-23T18:26:01.085Z,14
2019-03-23T18:27:01.085Z,13
2019-03-23T18:28:01.084Z,14
2019-03-23T18:29:01.084Z,13
2019-03-23T18:30:01.085Z,13
2019-03-23T18:31:01.083Z,14
2019-03-23T18:32:01.083Z,15
2019-03-23T18:33:01.094Z,13
2019-03-23T18:34:01.083Z,14
2019-03-23T18:35:03.081Z,15
2019-03-23T18:36:01.084Z,18
2019-03-23T18:37:01.085Z,19
2019-03-23T18:39:01.085Z,20
2019-03-23T18:40:01.084Z,19
2019-03-23T18:41:01.090Z,18
2019-03-23T18:42:01.089Z,17
2019-03-23T18:43:01.154Z,19
2019-03-23T18:44:01.088Z,17
2019-03-23T18:45:01.087Z,19
2019-03-23T18:46:01.151Z,17
2019-03-23T18:49:01.091Z,16
2019-03-23T18:50:01.087Z,14
2019-03-23T18:51:01.118Z,15
2019-03-23T18:54:01.086Z,17
2019-03-23T18:55:01.089Z,19
2019-03-23T18:56:01.123Z,18
2019-03-23T18:57:01.094Z,16
2019-03-23T18:58:01.094Z,17
2019-03-23T19:00:01.093Z,15
2019-03-23T19:03:01.087Z,16
2019-03-23T19:04:01.090Z,14
2019-03-23T19:05:01.138Z,15
2019-03-23T19:06:01.116Z,17
2019-03-23T19:07:01.091Z,18
2019-03-23T19:09:01.089Z,21
2019-03-23T19:10:01.090Z,19
2019-03-23T19:11:01.115Z,18
2019-03-23T19:12:01.092Z,16
2019-03-23T19:13:01.091Z,15
2019-03-23T19:15:01.095Z,16
2019-03-23T19:16:02.026Z,15
2019-03-23T19:17:01.088Z,16
2019-03-23T19:19:01.089Z,15
2019-03-23T19:20:01.089Z,14